Nearby METAR Reports

 

KHCR - Heber/Russ Mcdon, Utah, USA
Distance from station: SSW 18mi, 29km
Updated: Fri, 19-Aug-2022 9:15pm MDT
Overcast
Overcast
 Wind from N
Wind: N 5 mph , 7 km/h
Temperature: 68°F , 20°C
Dew Point: 50°F , 10°C
Humidity: 53%
Barometer: 30.09 inHg , 1019 hPa
Clouds: Overcast
Visibility: 10 miles , 16 km
Cloud details: Overcast 8000 ft
2022/08/20 03:15 KHCR 200315Z AUTO 01004KT 10SM OVC080 20/10 A3009 RMK AO2
KSLC - Salt Lake City, Utah, USA
Distance from station: W 35mi, 57km
Updated: Fri, 19-Aug-2022 8:54pm MDT
Mostly cloudy
Mostly cloudy
 Wind from NW
Wind: NW 3 mph , 6 km/h
Temperature: 73°F , 23°C
Dew Point: 55°F , 13°C
Humidity: 53%
Barometer: 29.99 inHg , 1015.6 hPa
Clouds: Mostly cloudy
Visibility: 10 miles , 16 km
Cloud details: Few Clouds 7500 ft
Mostly cloudy 10000 ft
Mostly cloudy 17000 ft
2022/08/20 02:54 KSLC 200254Z 31003KT 10SM FEW075 BKN100 BKN170 23/13 A2999 RMK AO2 SLP101 T02330133 55006
 
KU42 - Salt Lake Muni, Utah, USA
Distance from station: WSW 37mi, 59km
Updated: Fri, 19-Aug-2022 9:15pm MDT
Clear
Clear
 Wind from calm
Wind: Calm
Temperature: 72°F , 22°C
Dew Point: 61°F , 16°C
Humidity: 69%
Barometer: 30.04 inHg , 1017.3 hPa
Clouds: Clear
Visibility: 10 miles , 16 km
2022/08/20 03:15 KU42 200315Z AUTO 00000KT 10SM CLR 22/16 A3004 RMK AO1 T02150157
KEVW - Evanston, Wyoming, USA
Distance from station: NNE 40mi, 64km
Updated: Fri, 19-Aug-2022 8:53pm MDT
Overcast
Overcast
 Wind from S
Wind: S 6 mph , 9 km/h
Temperature: 63°F , 17°C
Dew Point: 46°F , 8°C
Humidity: 56%
Barometer: 30.22 inHg , 1023.4 hPa
Clouds: Overcast
Visibility: 10 miles , 16 km
Cloud details: Few Clouds 5000 ft
Overcast 9000 ft
2022/08/20 02:53 KEVW 200253Z AUTO 19005KT 10SM FEW050 OVC090 17/08 A3022 RMK AO2 SLP145 T01670083 53004
 
KPVU - Provo Muni, Utah, USA
Distance from station: SSW 41mi, 67km
Updated: Fri, 19-Aug-2022 8:56pm MDT
Partly cloudy
Partly cloudy
 Wind from S
Wind: S 6 mph , 9 km/h
Temperature: 73°F , 23°C
Dew Point: 57°F , 14°C
Humidity: 57%
Barometer: 30.02 inHg , 1016.6 hPa
Clouds: Partly cloudy
Visibility: 9 miles , 14 km
Cloud details: Partly cloudy 12000 ft
2022/08/20 02:56 KPVU 200256Z AUTO 18005KT 9SM SCT120 23/14 A3002 RMK AO2 SLP113 T02280139 55006
KHIF - Hill Afb/Ogden, Utah, USA
Distance from station: NW 45mi, 72km
Updated: Fri, 19-Aug-2022 8:58pm MDT
Mostly cloudy
Mostly cloudy
 Wind from ESE
Wind: ESE 14 mph , 22 km/h
Temperature: 66°F , 19°C
Dew Point: 54°F , 12°C
Humidity: 64%
Barometer: 30.03 inHg , 1016.9 hPa
Clouds: Mostly cloudy
Visibility: 10 miles , 16 km
Cloud details: Mostly cloudy 16000 ft
2022/08/20 02:58 KHIF 200258Z 11012KT 10SM BKN160 19/12 A3003 RMK AO2A SLP115 60000 T01880123 55008
 
KOGD - Ogden, Utah, USA
Distance from station: NW 50mi, 81km
Updated: Fri, 19-Aug-2022 8:53pm MDT
Clear
Clear
 Wind from S
Wind: S 7 mph , 11 km/h
Temperature: 70°F , 21°C
Dew Point: 57°F , 14°C
Humidity: 64%
Barometer: 30.02 inHg , 1016.6 hPa
Clouds: Clear
Visibility: 10 miles , 16 km
2022/08/20 02:53 KOGD 200253Z AUTO 17006KT 10SM CLR 21/14 A3002 RMK AO2 SLP108 60001 T02060139 55012